sensor_id;sensor_type;location;lat;lon;timestamp;P1;durP1;ratioP1;P2;durP2;ratioP2
34405;SDS011;20658;45.630;8.886;2023-02-01T00:01:05;79.85;;;46.95;;
34405;SDS011;20658;45.630;8.886;2023-02-01T00:03:40;81.93;;;46.75;;
34405;SDS011;20658;45.630;8.886;2023-02-01T00:06:14;79.25;;;46.67;;
34405;SDS011;20658;45.630;8.886;2023-02-01T00:08:47;72.22;;;45.20;;
34405;SDS011;20658;45.630;8.886;2023-02-01T00:11:21;81.00;;;46.80;;
34405;SDS011;20658;45.630;8.886;2023-02-01T00:13:56;81.38;;;47.33;;
34405;SDS011;20658;45.630;8.886;2023-02-01T00:16:30;80.20;;;47.05;;
34405;SDS011;20658;45.630;8.886;2023-02-01T00:19:06;74.90;;;46.30;;
34405;SDS011;20658;45.630;8.886;2023-02-01T00:21:42;78.63;;;45.58;;
34405;SDS011;20658;45.630;8.886;2023-02-01T00:24:16;74.63;;;42.75;;
34405;SDS011;20658;45.630;8.886;2023-02-01T00:26:50;70.47;;;42.17;;
34405;SDS011;20658;45.630;8.886;2023-02-01T00:29:23;74.57;;;41.33;;
34405;SDS011;20658;45.630;8.886;2023-02-01T00:31:57;75.32;;;43.63;;
34405;SDS011;20658;45.630;8.886;2023-02-01T00:34:32;78.15;;;45.08;;
34405;SDS011;20658;45.630;8.886;2023-02-01T00:37:05;94.88;;;49.67;;
34405;SDS011;20658;45.630;8.886;2023-02-01T00:39:38;91.95;;;50.42;;
34405;SDS011;20658;45.630;8.886;2023-02-01T00:42:12;96.10;;;51.83;;
34405;SDS011;20658;45.630;8.886;2023-02-01T00:44:45;90.95;;;49.20;;
34405;SDS011;20658;45.630;8.886;2023-02-01T00:47:18;96.20;;;51.35;;
34405;SDS011;20658;45.630;8.886;2023-02-01T00:49:48;92.50;;;49.78;;
34405;SDS011;20658;45.630;8.886;2023-02-01T00:52:21;89.07;;;49.08;;
34405;SDS011;20658;45.630;8.886;2023-02-01T00:54:55;82.18;;;45.97;;
34405;SDS011;20658;45.630;8.886;2023-02-01T00:57:28;85.03;;;47.20;;
34405;SDS011;20658;45.630;8.886;2023-02-01T01:00:01;71.60;;;42.67;;
34405;SDS011;20658;45.630;8.886;2023-02-01T01:02:36;73.63;;;41.50;;
34405;SDS011;20658;45.630;8.886;2023-02-01T01:05:10;71.45;;;39.85;;
34405;SDS011;20658;45.630;8.886;2023-02-01T01:07:43;67.10;;;39.47;;
34405;SDS011;20658;45.630;8.886;2023-02-01T01:10:17;65.93;;;39.38;;
34405;SDS011;20658;45.630;8.886;2023-02-01T01:12:51;61.60;;;38.30;;
34405;SDS011;20658;45.630;8.886;2023-02-01T01:15:24;64.57;;;36.83;;
34405;SDS011;20658;45.630;8.886;2023-02-01T01:17:57;66.45;;;38.42;;
34405;SDS011;20658;45.630;8.886;2023-02-01T01:20:34;68.65;;;35.45;;
34405;SDS011;20658;45.630;8.886;2023-02-01T01:23:09;64.40;;;37.38;;
34405;SDS011;20658;45.630;8.886;2023-02-01T01:25:43;64.15;;;37.20;;
34405;SDS011;20658;45.630;8.886;2023-02-01T01:28:16;70.75;;;39.60;;
34405;SDS011;20658;45.630;8.886;2023-02-01T01:30:50;69.53;;;36.95;;
34405;SDS011;20658;45.630;8.886;2023-02-01T01:33:23;64.47;;;35.20;;
34405;SDS011;20658;45.630;8.886;2023-02-01T01:35:58;68.70;;;38.42;;
34405;SDS011;20658;45.630;8.886;2023-02-01T01:38:31;68.28;;;36.70;;
34405;SDS011;20658;45.630;8.886;2023-02-01T01:41:05;62.85;;;35.13;;
34405;SDS011;20658;45.630;8.886;2023-02-01T01:43:46;74.15;;;39.17;;
34405;SDS011;20658;45.630;8.886;2023-02-01T01:46:27;68.80;;;37.80;;
34405;SDS011;20658;45.630;8.886;2023-02-01T01:49:04;72.60;;;39.47;;
34405;SDS011;20658;45.630;8.886;2023-02-01T01:51:44;62.15;;;35.00;;
34405;SDS011;20658;45.630;8.886;2023-02-01T01:54:22;67.85;;;36.75;;
34405;SDS011;20658;45.630;8.886;2023-02-01T01:57:01;65.57;;;38.53;;
34405;SDS011;20658;45.630;8.886;2023-02-01T01:59:56;78.75;;;43.38;;
34405;SDS011;20658;45.630;8.886;2023-02-01T02:02:39;68.18;;;38.13;;
34405;SDS011;20658;45.630;8.886;2023-02-01T02:05:16;62.50;;;35.60;;
34405;SDS011;20658;45.630;8.886;2023-02-01T02:07:53;64.68;;;35.00;;
34405;SDS011;20658;45.630;8.886;2023-02-01T02:10:30;57.22;;;33.20;;
34405;SDS011;20658;45.630;8.886;2023-02-01T02:13:21;56.92;;;31.10;;
34405;SDS011;20658;45.630;8.886;2023-02-01T02:15:59;52.65;;;30.05;;
34405;SDS011;20658;45.630;8.886;2023-02-01T02:18:53;58.25;;;30.90;;
34405;SDS011;20658;45.630;8.886;2023-02-01T02:21:50;59.33;;;32.15;;
34405;SDS011;20658;45.630;8.886;2023-02-01T02:28:34;58.03;;;31.23;;
34405;SDS011;20658;45.630;8.886;2023-02-01T02:31:54;53.38;;;31.90;;
34405;SDS011;20658;45.630;8.886;2023-02-01T02:34:44;59.65;;;31.15;;
34405;SDS011;20658;45.630;8.886;2023-02-01T02:37:24;52.47;;;31.25;;
34405;SDS011;20658;45.630;8.886;2023-02-01T02:40:13;53.30;;;30.83;;
34405;SDS011;20658;45.630;8.886;2023-02-01T02:42:49;54.55;;;29.98;;
34405;SDS011;20658;45.630;8.886;2023-02-01T02:45:54;67.53;;;36.60;;
34405;SDS011;20658;45.630;8.886;2023-02-01T02:48:52;68.88;;;37.53;;
34405;SDS011;20658;45.630;8.886;2023-02-01T02:51:36;65.60;;;36.80;;
34405;SDS011;20658;45.630;8.886;2023-02-01T02:54:36;58.95;;;32.83;;
34405;SDS011;20658;45.630;8.886;2023-02-01T02:57:19;57.22;;;33.75;;
34405;SDS011;20658;45.630;8.886;2023-02-01T03:00:17;58.10;;;33.50;;
34405;SDS011;20658;45.630;8.886;2023-02-01T03:03:12;51.13;;;29.90;;
34405;SDS011;20658;45.630;8.886;2023-02-01T03:06:03;78.50;;;37.08;;
34405;SDS011;20658;45.630;8.886;2023-02-01T03:08:48;58.35;;;31.27;;
34405;SDS011;20658;45.630;8.886;2023-02-01T03:11:25;60.05;;;30.50;;
34405;SDS011;20658;45.630;8.886;2023-02-01T03:14:20;60.50;;;31.10;;
34405;SDS011;20658;45.630;8.886;2023-02-01T03:16:54;68.45;;;36.65;;
34405;SDS011;20658;45.630;8.886;2023-02-01T03:19:34;80.45;;;43.45;;
34405;SDS011;20658;45.630;8.886;2023-02-01T03:22:10;67.72;;;38.50;;
34405;SDS011;20658;45.630;8.886;2023-02-01T03:24:48;70.50;;;35.53;;
34405;SDS011;20658;45.630;8.886;2023-02-01T03:27:27;55.55;;;27.77;;
34405;SDS011;20658;45.630;8.886;2023-02-01T03:30:06;49.92;;;25.65;;
34405;SDS011;20658;45.630;8.886;2023-02-01T03:32:45;50.00;;;26.10;;
34405;SDS011;20658;45.630;8.886;2023-02-01T03:35:33;49.65;;;27.25;;
34405;SDS011;20658;45.630;8.886;2023-02-01T03:38:13;50.95;;;27.27;;
34405;SDS011;20658;45.630;8.886;2023-02-01T03:40:55;48.72;;;26.73;;
34405;SDS011;20658;45.630;8.886;2023-02-01T03:43:32;40.78;;;21.60;;
34405;SDS011;20658;45.630;8.886;2023-02-01T03:46:13;40.85;;;21.15;;
34405;SDS011;20658;45.630;8.886;2023-02-01T03:48:53;41.33;;;24.13;;
34405;SDS011;20658;45.630;8.886;2023-02-01T03:51:27;41.13;;;22.40;;
34405;SDS011;20658;45.630;8.886;2023-02-01T03:54:02;35.08;;;20.65;;
34405;SDS011;20658;45.630;8.886;2023-02-01T03:56:41;37.47;;;20.02;;
34405;SDS011;20658;45.630;8.886;2023-02-01T03:59:17;41.40;;;20.42;;
34405;SDS011;20658;45.630;8.886;2023-02-01T04:01:50;35.95;;;18.98;;
34405;SDS011;20658;45.630;8.886;2023-02-01T04:04:25;36.83;;;18.38;;
34405;SDS011;20658;45.630;8.886;2023-02-01T04:06:58;35.90;;;19.05;;
34405;SDS011;20658;45.630;8.886;2023-02-01T04:09:31;34.10;;;18.10;;
34405;SDS011;20658;45.630;8.886;2023-02-01T04:12:06;36.22;;;19.38;;
34405;SDS011;20658;45.630;8.886;2023-02-01T04:14:39;41.65;;;21.88;;
34405;SDS011;20658;45.630;8.886;2023-02-01T04:17:13;32.35;;;18.25;;
34405;SDS011;20658;45.630;8.886;2023-02-01T04:19:46;38.17;;;19.50;;
34405;SDS011;20658;45.630;8.886;2023-02-01T04:22:19;36.97;;;19.73;;
34405;SDS011;20658;45.630;8.886;2023-02-01T04:24:53;33.97;;;17.45;;
34405;SDS011;20658;45.630;8.886;2023-02-01T04:27:46;35.75;;;19.48;;
34405;SDS011;20658;45.630;8.886;2023-02-01T04:30:19;38.05;;;19.05;;
34405;SDS011;20658;45.630;8.886;2023-02-01T04:32:52;36.72;;;19.88;;
34405;SDS011;20658;45.630;8.886;2023-02-01T04:35:26;34.22;;;19.40;;
34405;SDS011;20658;45.630;8.886;2023-02-01T04:37:59;34.55;;;18.73;;
34405;SDS011;20658;45.630;8.886;2023-02-01T04:40:32;38.97;;;19.55;;
34405;SDS011;20658;45.630;8.886;2023-02-01T04:43:10;34.65;;;19.38;;
34405;SDS011;20658;45.630;8.886;2023-02-01T04:45:46;44.35;;;22.33;;
34405;SDS011;20658;45.630;8.886;2023-02-01T04:48:20;42.22;;;22.55;;
34405;SDS011;20658;45.630;8.886;2023-02-01T04:50:54;37.85;;;21.40;;
34405;SDS011;20658;45.630;8.886;2023-02-01T04:53:27;37.05;;;19.63;;
34405;SDS011;20658;45.630;8.886;2023-02-01T04:56:05;47.00;;;23.05;;
34405;SDS011;20658;45.630;8.886;2023-02-01T04:58:42;42.17;;;18.30;;
34405;SDS011;20658;45.630;8.886;2023-02-01T05:01:15;37.05;;;18.27;;
34405;SDS011;20658;45.630;8.886;2023-02-01T05:03:48;34.85;;;17.88;;
34405;SDS011;20658;45.630;8.886;2023-02-01T05:06:22;32.78;;;18.35;;
34405;SDS011;20658;45.630;8.886;2023-02-01T05:08:55;31.10;;;17.88;;
34405;SDS011;20658;45.630;8.886;2023-02-01T05:11:28;33.20;;;18.42;;
34405;SDS011;20658;45.630;8.886;2023-02-01T05:14:20;34.75;;;18.30;;
34405;SDS011;20658;45.630;8.886;2023-02-01T05:16:54;31.50;;;18.58;;
34405;SDS011;20658;45.630;8.886;2023-02-01T05:19:27;34.42;;;17.55;;
34405;SDS011;20658;45.630;8.886;2023-02-01T05:22:00;32.85;;;18.38;;
34405;SDS011;20658;45.630;8.886;2023-02-01T05:24:34;31.48;;;17.55;;
34405;SDS011;20658;45.630;8.886;2023-02-01T05:27:07;33.63;;;18.35;;
34405;SDS011;20658;45.630;8.886;2023-02-01T05:29:42;34.85;;;17.70;;
34405;SDS011;20658;45.630;8.886;2023-02-01T05:32:15;32.53;;;17.90;;
34405;SDS011;20658;45.630;8.886;2023-02-01T05:34:48;32.70;;;17.73;;
34405;SDS011;20658;45.630;8.886;2023-02-01T05:37:22;31.90;;;17.52;;
34405;SDS011;20658;45.630;8.886;2023-02-01T05:39:55;33.47;;;18.10;;
34405;SDS011;20658;45.630;8.886;2023-02-01T05:42:28;34.00;;;17.27;;
34405;SDS011;20658;45.630;8.886;2023-02-01T05:45:04;35.20;;;17.48;;
34405;SDS011;20658;45.630;8.886;2023-02-01T05:47:38;31.83;;;17.33;;
34405;SDS011;20658;45.630;8.886;2023-02-01T05:50:12;34.47;;;18.25;;
34405;SDS011;20658;45.630;8.886;2023-02-01T05:52:45;34.90;;;18.20;;
34405;SDS011;20658;45.630;8.886;2023-02-01T05:55:18;30.10;;;15.80;;
34405;SDS011;20658;45.630;8.886;2023-02-01T05:57:52;36.05;;;17.83;;
34405;SDS011;20658;45.630;8.886;2023-02-01T06:00:26;39.50;;;20.75;;
34405;SDS011;20658;45.630;8.886;2023-02-01T06:03:00;41.08;;;21.33;;
34405;SDS011;20658;45.630;8.886;2023-02-01T06:05:33;36.67;;;17.95;;
34405;SDS011;20658;45.630;8.886;2023-02-01T06:08:08;34.80;;;19.58;;
34405;SDS011;20658;45.630;8.886;2023-02-01T06:10:41;32.92;;;18.67;;
34405;SDS011;20658;45.630;8.886;2023-02-01T06:13:14;34.03;;;17.02;;
34405;SDS011;20658;45.630;8.886;2023-02-01T06:15:49;34.08;;;16.92;;
34405;SDS011;20658;45.630;8.886;2023-02-01T06:18:22;38.13;;;18.02;;
34405;SDS011;20658;45.630;8.886;2023-02-01T06:20:56;41.05;;;18.73;;
34405;SDS011;20658;45.630;8.886;2023-02-01T06:23:31;36.50;;;19.20;;
34405;SDS011;20658;45.630;8.886;2023-02-01T06:26:05;37.25;;;18.92;;
34405;SDS011;20658;45.630;8.886;2023-02-01T06:28:39;32.08;;;17.88;;
34405;SDS011;20658;45.630;8.886;2023-02-01T06:31:14;36.85;;;19.33;;
34405;SDS011;20658;45.630;8.886;2023-02-01T06:33:47;35.72;;;18.88;;
34405;SDS011;20658;45.630;8.886;2023-02-01T06:36:21;36.58;;;18.75;;
34405;SDS011;20658;45.630;8.886;2023-02-01T06:38:55;39.70;;;18.75;;
34405;SDS011;20658;45.630;8.886;2023-02-01T06:41:30;36.85;;;18.88;;
34405;SDS011;20658;45.630;8.886;2023-02-01T06:44:06;37.83;;;19.27;;
34405;SDS011;20658;45.630;8.886;2023-02-01T06:46:40;40.38;;;20.02;;
34405;SDS011;20658;45.630;8.886;2023-02-01T06:49:14;37.17;;;19.13;;
34405;SDS011;20658;45.630;8.886;2023-02-01T06:51:47;38.05;;;19.23;;
34405;SDS011;20658;45.630;8.886;2023-02-01T06:54:20;39.47;;;18.13;;
34405;SDS011;20658;45.630;8.886;2023-02-01T06:56:54;39.90;;;18.63;;
34405;SDS011;20658;45.630;8.886;2023-02-01T06:59:27;34.63;;;19.27;;
34405;SDS011;20658;45.630;8.886;2023-02-01T07:02:01;36.45;;;18.10;;
34405;SDS011;20658;45.630;8.886;2023-02-01T07:04:35;34.13;;;17.77;;
34405;SDS011;20658;45.630;8.886;2023-02-01T07:07:08;33.17;;;17.35;;
34405;SDS011;20658;45.630;8.886;2023-02-01T07:09:43;32.53;;;17.27;;
34405;SDS011;20658;45.630;8.886;2023-02-01T07:12:16;36.67;;;18.70;;
34405;SDS011;20658;45.630;8.886;2023-02-01T07:14:51;49.15;;;29.85;;
34405;SDS011;20658;45.630;8.886;2023-02-01T07:17:26;38.03;;;19.48;;
34405;SDS011;20658;45.630;8.886;2023-02-01T07:20:00;35.80;;;16.48;;
34405;SDS011;20658;45.630;8.886;2023-02-01T07:22:34;35.42;;;17.08;;
34405;SDS011;20658;45.630;8.886;2023-02-01T07:25:07;48.72;;;18.25;;
34405;SDS011;20658;45.630;8.886;2023-02-01T07:27:41;50.75;;;19.83;;
34405;SDS011;20658;45.630;8.886;2023-02-01T07:30:14;43.35;;;20.13;;
34405;SDS011;20658;45.630;8.886;2023-02-01T07:32:49;49.67;;;20.38;;
34405;SDS011;20658;45.630;8.886;2023-02-01T07:35:22;46.65;;;20.80;;
34405;SDS011;20658;45.630;8.886;2023-02-01T07:37:56;49.08;;;19.35;;
34405;SDS011;20658;45.630;8.886;2023-02-01T07:40:30;36.42;;;18.58;;
34405;SDS011;20658;45.630;8.886;2023-02-01T07:43:04;33.90;;;17.75;;
34405;SDS011;20658;45.630;8.886;2023-02-01T07:45:39;35.90;;;18.13;;
34405;SDS011;20658;45.630;8.886;2023-02-01T07:48:13;34.88;;;17.20;;
34405;SDS011;20658;45.630;8.886;2023-02-01T07:50:47;35.72;;;14.93;;
34405;SDS011;20658;45.630;8.886;2023-02-01T07:53:20;32.42;;;16.67;;
34405;SDS011;20658;45.630;8.886;2023-02-01T07:55:53;31.63;;;15.82;;
34405;SDS011;20658;45.630;8.886;2023-02-01T07:58:28;33.80;;;15.88;;
34405;SDS011;20658;45.630;8.886;2023-02-01T08:01:01;31.60;;;15.20;;
34405;SDS011;20658;45.630;8.886;2023-02-01T08:03:57;35.75;;;17.48;;
34405;SDS011;20658;45.630;8.886;2023-02-01T08:06:32;34.35;;;18.25;;
34405;SDS011;20658;45.630;8.886;2023-02-01T08:09:07;31.30;;;15.48;;
34405;SDS011;20658;45.630;8.886;2023-02-01T08:11:42;32.10;;;17.25;;
34405;SDS011;20658;45.630;8.886;2023-02-01T08:14:15;33.97;;;16.52;;
34405;SDS011;20658;45.630;8.886;2023-02-01T08:16:48;30.98;;;17.40;;
34405;SDS011;20658;45.630;8.886;2023-02-01T08:19:23;31.30;;;17.20;;
34405;SDS011;20658;45.630;8.886;2023-02-01T08:21:56;39.33;;;16.75;;
34405;SDS011;20658;45.630;8.886;2023-02-01T08:24:30;33.13;;;15.07;;
34405;SDS011;20658;45.630;8.886;2023-02-01T08:27:03;39.22;;;16.38;;
34405;SDS011;20658;45.630;8.886;2023-02-01T08:29:36;31.65;;;14.95;;
34405;SDS011;20658;45.630;8.886;2023-02-01T08:32:10;28.95;;;14.65;;
34405;SDS011;20658;45.630;8.886;2023-02-01T08:34:45;29.42;;;14.75;;
34405;SDS011;20658;45.630;8.886;2023-02-01T08:37:18;26.38;;;12.57;;
34405;SDS011;20658;45.630;8.886;2023-02-01T08:39:53;27.00;;;13.05;;
34405;SDS011;20658;45.630;8.886;2023-02-01T08:42:26;26.67;;;13.70;;
34405;SDS011;20658;45.630;8.886;2023-02-01T08:45:17;29.63;;;14.93;;
34405;SDS011;20658;45.630;8.886;2023-02-01T08:47:51;27.00;;;12.68;;
34405;SDS011;20658;45.630;8.886;2023-02-01T08:50:27;26.65;;;13.40;;
34405;SDS011;20658;45.630;8.886;2023-02-01T08:53:00;28.38;;;11.40;;
34405;SDS011;20658;45.630;8.886;2023-02-01T08:55:33;27.48;;;12.48;;
34405;SDS011;20658;45.630;8.886;2023-02-01T08:58:07;25.63;;;12.38;;
34405;SDS011;20658;45.630;8.886;2023-02-01T09:00:40;29.77;;;15.30;;
34405;SDS011;20658;45.630;8.886;2023-02-01T09:03:14;24.95;;;11.57;;
34405;SDS011;20658;45.630;8.886;2023-02-01T09:05:49;28.98;;;13.05;;
34405;SDS011;20658;45.630;8.886;2023-02-01T09:08:22;22.85;;;11.23;;
34405;SDS011;20658;45.630;8.886;2023-02-01T09:10:58;30.63;;;12.18;;
34405;SDS011;20658;45.630;8.886;2023-02-01T09:13:32;33.60;;;12.63;;
34405;SDS011;20658;45.630;8.886;2023-02-01T09:16:06;22.38;;;11.68;;
34405;SDS011;20658;45.630;8.886;2023-02-01T09:18:40;23.55;;;12.48;;
34405;SDS011;20658;45.630;8.886;2023-02-01T09:21:14;25.55;;;12.07;;
34405;SDS011;20658;45.630;8.886;2023-02-01T09:23:48;26.98;;;12.50;;
34405;SDS011;20658;45.630;8.886;2023-02-01T09:26:23;22.88;;;10.73;;
34405;SDS011;20658;45.630;8.886;2023-02-01T09:28:56;26.27;;;11.73;;
34405;SDS011;20658;45.630;8.886;2023-02-01T09:31:30;25.02;;;10.90;;
34405;SDS011;20658;45.630;8.886;2023-02-01T09:34:04;22.80;;;10.15;;
34405;SDS011;20658;45.630;8.886;2023-02-01T09:36:39;21.63;;;10.20;;
34405;SDS011;20658;45.630;8.886;2023-02-01T09:39:12;29.63;;;12.90;;
34405;SDS011;20658;45.630;8.886;2023-02-01T09:41:48;24.83;;;11.20;;
34405;SDS011;20658;45.630;8.886;2023-02-01T09:44:40;54.03;;;31.80;;
34405;SDS011;20658;45.630;8.886;2023-02-01T09:47:25;19.05;;;8.63;;
34405;SDS011;20658;45.630;8.886;2023-02-01T09:50:02;25.60;;;9.68;;
34405;SDS011;20658;45.630;8.886;2023-02-01T09:52:43;20.48;;;9.82;;
34405;SDS011;20658;45.630;8.886;2023-02-01T09:55:20;26.95;;;10.98;;
34405;SDS011;20658;45.630;8.886;2023-02-01T09:58:00;21.95;;;10.63;;
34405;SDS011;20658;45.630;8.886;2023-02-01T10:00:38;23.90;;;11.50;;
34405;SDS011;20658;45.630;8.886;2023-02-01T10:03:13;26.73;;;13.00;;
34405;SDS011;20658;45.630;8.886;2023-02-01T10:06:00;26.58;;;12.48;;
34405;SDS011;20658;45.630;8.886;2023-02-01T10:09:01;26.02;;;12.55;;
34405;SDS011;20658;45.630;8.886;2023-02-01T10:12:12;26.75;;;13.55;;
34405;SDS011;20658;45.630;8.886;2023-02-01T10:15:30;27.58;;;13.20;;
34405;SDS011;20658;45.630;8.886;2023-02-01T10:18:32;29.00;;;13.07;;
34405;SDS011;20658;45.630;8.886;2023-02-01T10:21:28;26.92;;;12.88;;
34405;SDS011;20658;45.630;8.886;2023-02-01T10:24:22;24.75;;;13.20;;
34405;SDS011;20658;45.630;8.886;2023-02-01T10:27:13;25.42;;;10.65;;
34405;SDS011;20658;45.630;8.886;2023-02-01T10:29:51;29.45;;;12.48;;
34405;SDS011;20658;45.630;8.886;2023-02-01T10:32:29;24.95;;;11.75;;
34405;SDS011;20658;45.630;8.886;2023-02-01T10:35:08;28.80;;;13.68;;
34405;SDS011;20658;45.630;8.886;2023-02-01T10:37:47;23.83;;;11.80;;
34405;SDS011;20658;45.630;8.886;2023-02-01T10:40:23;29.77;;;11.98;;
34405;SDS011;20658;45.630;8.886;2023-02-01T10:42:55;33.38;;;12.25;;
34405;SDS011;20658;45.630;8.886;2023-02-01T10:45:32;25.10;;;11.77;;
34405;SDS011;20658;45.630;8.886;2023-02-01T10:48:06;30.20;;;12.15;;
34405;SDS011;20658;45.630;8.886;2023-02-01T10:50:44;21.70;;;11.10;;
34405;SDS011;20658;45.630;8.886;2023-02-01T10:53:24;24.42;;;10.98;;
34405;SDS011;20658;45.630;8.886;2023-02-01T10:56:07;22.25;;;9.73;;
34405;SDS011;20658;45.630;8.886;2023-02-01T10:58:43;22.80;;;9.90;;
34405;SDS011;20658;45.630;8.886;2023-02-01T11:01:19;24.02;;;11.23;;
34405;SDS011;20658;45.630;8.886;2023-02-01T11:03:56;18.95;;;8.98;;
34405;SDS011;20658;45.630;8.886;2023-02-01T11:06:31;21.83;;;9.38;;
34405;SDS011;20658;45.630;8.886;2023-02-01T11:09:14;28.98;;;9.75;;
34405;SDS011;20658;45.630;8.886;2023-02-01T11:11:55;23.88;;;10.00;;
34405;SDS011;20658;45.630;8.886;2023-02-01T11:14:35;25.35;;;8.90;;
34405;SDS011;20658;45.630;8.886;2023-02-01T11:17:20;25.90;;;10.02;;
34405;SDS011;20658;45.630;8.886;2023-02-01T11:20:00;23.33;;;10.20;;
34405;SDS011;20658;45.630;8.886;2023-02-01T11:22:36;23.45;;;9.50;;
34405;SDS011;20658;45.630;8.886;2023-02-01T11:25:10;23.23;;;10.45;;
34405;SDS011;20658;45.630;8.886;2023-02-01T11:27:50;21.92;;;10.02;;
34405;SDS011;20658;45.630;8.886;2023-02-01T11:30:31;20.17;;;9.25;;
34405;SDS011;20658;45.630;8.886;2023-02-01T11:33:08;20.45;;;9.20;;
34405;SDS011;20658;45.630;8.886;2023-02-01T11:35:48;23.80;;;10.73;;
34405;SDS011;20658;45.630;8.886;2023-02-01T11:38:22;22.27;;;10.73;;
34405;SDS011;20658;45.630;8.886;2023-02-01T11:41:11;24.90;;;10.35;;
34405;SDS011;20658;45.630;8.886;2023-02-01T11:43:54;25.35;;;10.57;;
34405;SDS011;20658;45.630;8.886;2023-02-01T11:46:30;24.25;;;9.10;;
34405;SDS011;20658;45.630;8.886;2023-02-01T11:49:23;27.25;;;11.02;;
34405;SDS011;20658;45.630;8.886;2023-02-01T11:52:05;23.60;;;9.90;;
34405;SDS011;20658;45.630;8.886;2023-02-01T11:54:50;19.75;;;9.07;;
34405;SDS011;20658;45.630;8.886;2023-02-01T11:57:43;25.50;;;10.20;;
34405;SDS011;20658;45.630;8.886;2023-02-01T12:00:34;20.30;;;7.90;;
34405;SDS011;20658;45.630;8.886;2023-02-01T12:06:47;28.45;;;10.40;;
34405;SDS011;20658;45.630;8.886;2023-02-01T12:09:27;23.05;;;8.63;;
34405;SDS011;20658;45.630;8.886;2023-02-01T12:12:16;19.60;;;8.77;;
34405;SDS011;20658;45.630;8.886;2023-02-01T12:15:02;23.33;;;9.60;;
34405;SDS011;20658;45.630;8.886;2023-02-01T12:18:03;19.83;;;9.55;;
34405;SDS011;20658;45.630;8.886;2023-02-01T12:21:23;23.02;;;11.13;;
34405;SDS011;20658;45.630;8.886;2023-02-01T12:27:05;24.90;;;11.65;;
34405;SDS011;20658;45.630;8.886;2023-02-01T12:30:10;24.25;;;11.13;;
34405;SDS011;20658;45.630;8.886;2023-02-01T12:33:01;26.98;;;13.20;;
34405;SDS011;20658;45.630;8.886;2023-02-01T12:35:54;26.30;;;12.55;;
34405;SDS011;20658;45.630;8.886;2023-02-01T12:38:47;29.25;;;14.52;;
34405;SDS011;20658;45.630;8.886;2023-02-01T12:44:31;27.58;;;14.07;;
34405;SDS011;20658;45.630;8.886;2023-02-01T12:47:13;31.58;;;15.25;;
34405;SDS011;20658;45.630;8.886;2023-02-01T12:49:55;29.15;;;16.80;;
34405;SDS011;20658;45.630;8.886;2023-02-01T12:52:35;30.60;;;16.67;;
34405;SDS011;20658;45.630;8.886;2023-02-01T12:55:15;31.17;;;16.08;;
34405;SDS011;20658;45.630;8.886;2023-02-01T12:57:55;30.60;;;15.98;;
34405;SDS011;20658;45.630;8.886;2023-02-01T13:00:36;29.05;;;16.20;;
34405;SDS011;20658;45.630;8.886;2023-02-01T13:03:15;33.22;;;16.85;;
34405;SDS011;20658;45.630;8.886;2023-02-01T13:06:04;37.88;;;17.55;;
34405;SDS011;20658;45.630;8.886;2023-02-01T13:08:43;33.33;;;17.88;;
34405;SDS011;20658;45.630;8.886;2023-02-01T13:11:22;32.53;;;17.88;;
34405;SDS011;20658;45.630;8.886;2023-02-01T13:14:03;33.13;;;17.38;;
34405;SDS011;20658;45.630;8.886;2023-02-01T13:16:44;30.17;;;16.83;;
34405;SDS011;20658;45.630;8.886;2023-02-01T13:19:41;26.40;;;14.48;;
34405;SDS011;20658;45.630;8.886;2023-02-01T13:22:23;31.48;;;16.10;;
34405;SDS011;20658;45.630;8.886;2023-02-01T13:25:01;28.17;;;16.23;;
34405;SDS011;20658;45.630;8.886;2023-02-01T13:27:38;28.45;;;15.65;;
34405;SDS011;20658;45.630;8.886;2023-02-01T13:30:13;28.30;;;14.48;;
34405;SDS011;20658;45.630;8.886;2023-02-01T13:32:59;30.48;;;15.20;;
34405;SDS011;20658;45.630;8.886;2023-02-01T13:35:56;28.50;;;15.68;;
34405;SDS011;20658;45.630;8.886;2023-02-01T13:39:06;29.80;;;16.67;;
34405;SDS011;20658;45.630;8.886;2023-02-01T13:42:23;31.08;;;17.25;;
34405;SDS011;20658;45.630;8.886;2023-02-01T13:45:00;32.33;;;17.92;;
34405;SDS011;20658;45.630;8.886;2023-02-01T13:47:38;32.88;;;18.25;;
34405;SDS011;20658;45.630;8.886;2023-02-01T13:50:19;32.17;;;17.58;;
34405;SDS011;20658;45.630;8.886;2023-02-01T13:52:57;30.40;;;18.13;;
34405;SDS011;20658;45.630;8.886;2023-02-01T13:55:34;35.53;;;19.33;;
34405;SDS011;20658;45.630;8.886;2023-02-01T13:58:17;29.00;;;15.73;;
34405;SDS011;20658;45.630;8.886;2023-02-01T14:00:53;28.38;;;16.77;;
34405;SDS011;20658;45.630;8.886;2023-02-01T14:04:45;25.88;;;14.35;;
34405;SDS011;20658;45.630;8.886;2023-02-01T14:07:21;29.55;;;14.00;;
34405;SDS011;20658;45.630;8.886;2023-02-01T14:09:55;24.88;;;14.68;;
34405;SDS011;20658;45.630;8.886;2023-02-01T14:12:48;24.38;;;12.50;;
34405;SDS011;20658;45.630;8.886;2023-02-01T14:15:23;24.15;;;12.15;;
34405;SDS011;20658;45.630;8.886;2023-02-01T14:17:59;24.23;;;12.23;;
34405;SDS011;20658;45.630;8.886;2023-02-01T14:23:25;21.67;;;11.35;;
34405;SDS011;20658;45.630;8.886;2023-02-01T14:26:15;24.70;;;10.88;;
34405;SDS011;20658;45.630;8.886;2023-02-01T14:28:59;24.70;;;12.55;;
34405;SDS011;20658;45.630;8.886;2023-02-01T14:31:59;23.50;;;11.07;;
34405;SDS011;20658;45.630;8.886;2023-02-01T14:34:38;19.13;;;10.15;;
34405;SDS011;20658;45.630;8.886;2023-02-01T14:37:24;21.13;;;10.40;;
34405;SDS011;20658;45.630;8.886;2023-02-01T14:40:03;19.88;;;10.48;;
34405;SDS011;20658;45.630;8.886;2023-02-01T14:42:39;27.00;;;10.77;;
34405;SDS011;20658;45.630;8.886;2023-02-01T14:48:42;23.77;;;11.02;;
34405;SDS011;20658;45.630;8.886;2023-02-01T14:51:18;26.25;;;10.25;;
34405;SDS011;20658;45.630;8.886;2023-02-01T14:53:53;22.75;;;10.55;;
34405;SDS011;20658;45.630;8.886;2023-02-01T14:56:27;24.30;;;10.30;;
34405;SDS011;20658;45.630;8.886;2023-02-01T14:59:02;24.42;;;11.65;;
34405;SDS011;20658;45.630;8.886;2023-02-01T15:01:48;24.00;;;11.43;;
34405;SDS011;20658;45.630;8.886;2023-02-01T15:04:26;24.95;;;11.27;;
34405;SDS011;20658;45.630;8.886;2023-02-01T15:07:04;26.40;;;11.80;;
34405;SDS011;20658;45.630;8.886;2023-02-01T15:09:42;24.20;;;12.07;;
34405;SDS011;20658;45.630;8.886;2023-02-01T15:12:22;24.92;;;11.93;;
34405;SDS011;20658;45.630;8.886;2023-02-01T15:15:13;24.05;;;12.02;;
34405;SDS011;20658;45.630;8.886;2023-02-01T15:17:51;22.45;;;10.80;;
34405;SDS011;20658;45.630;8.886;2023-02-01T15:20:27;22.30;;;10.20;;
34405;SDS011;20658;45.630;8.886;2023-02-01T15:23:03;24.13;;;10.48;;
34405;SDS011;20658;45.630;8.886;2023-02-01T15:25:39;24.08;;;10.55;;
34405;SDS011;20658;45.630;8.886;2023-02-01T15:28:12;23.73;;;9.93;;
34405;SDS011;20658;45.630;8.886;2023-02-01T15:30:54;23.55;;;8.70;;
34405;SDS011;20658;45.630;8.886;2023-02-01T15:33:32;20.83;;;10.38;;
34405;SDS011;20658;45.630;8.886;2023-02-01T15:36:16;23.38;;;10.13;;
34405;SDS011;20658;45.630;8.886;2023-02-01T15:41:54;26.33;;;10.00;;
34405;SDS011;20658;45.630;8.886;2023-02-01T15:44:33;26.63;;;9.82;;
34405;SDS011;20658;45.630;8.886;2023-02-01T15:47:13;21.30;;;9.52;;
34405;SDS011;20658;45.630;8.886;2023-02-01T15:49:52;23.35;;;10.07;;
34405;SDS011;20658;45.630;8.886;2023-02-01T15:52:34;20.33;;;8.85;;
34405;SDS011;20658;45.630;8.886;2023-02-01T15:55:17;23.85;;;8.98;;